createdAt,value
2022-09-11T00:00:07.599Z,101017.91
2022-09-11T00:03:20.037Z,101018.06
2022-09-11T00:06:30.144Z,101031.63
2022-09-11T00:09:37.143Z,101025.63
2022-09-11T00:12:42.674Z,101018.97
2022-09-11T00:15:51.617Z,101031.78
2022-09-11T00:19:00.593Z,101032.47
2022-09-11T00:22:06.173Z,101035.84
2022-09-11T00:25:11.698Z,101035.53
2022-09-11T00:28:24.817Z,101037.25
2022-09-11T00:31:32.723Z,101028.22
2022-09-11T00:34:39.662Z,101030.25
2022-09-11T00:37:45.533Z,101021.22
2022-09-11T00:40:52.266Z,101018.97
2022-09-11T00:44:05.465Z,101018.81
2022-09-11T00:47:16.489Z,101009.59
2022-09-11T00:50:25.575Z,101013.63
2022-09-11T00:53:35.908Z,101020.63
2022-09-11T00:56:43.674Z,101027.34
2022-09-11T00:59:51.434Z,101024.63
2022-09-11T01:02:58.035Z,101027.91
2022-09-11T01:06:05.139Z,101028.50
2022-09-11T01:09:10.342Z,101026.72
2022-09-11T01:12:42.448Z,101028.19
2022-09-11T01:16:11.134Z,101023.53
2022-09-11T01:19:39.807Z,101021.41
2022-09-11T01:23:10.875Z,101024.91
2022-09-11T01:26:52.692Z,101022.50
2022-09-11T01:30:10.906Z,101023.38
2022-09-11T01:33:41.000Z,101031.13
2022-09-11T01:36:56.187Z,101020.06
2022-09-11T01:40:11.080Z,101023.50
2022-09-11T01:43:22.528Z,101027.91
2022-09-11T01:46:29.493Z,101030.13
2022-09-11T01:49:49.081Z,101017.84
2022-09-11T01:53:03.322Z,101029.72
2022-09-11T01:56:13.769Z,101020.84
2022-09-11T01:59:27.798Z,101019.41
2022-09-11T02:02:43.428Z,101018.47
2022-09-11T02:05:57.446Z,101015.22
2022-09-11T02:09:11.820Z,101016.34
2022-09-11T02:12:22.686Z,101011.41
2022-09-11T02:15:36.337Z,101003.84
2022-09-11T02:18:48.860Z,101010.09
2022-09-11T02:21:54.996Z,101003.69
2022-09-11T02:25:02.869Z,101002.53
2022-09-11T02:28:08.601Z,101001.28
2022-09-11T02:31:14.724Z,101001.91
2022-09-11T02:34:30.301Z,100993.81
2022-09-11T02:37:56.259Z,100991.94
2022-09-11T02:41:20.224Z,100995.41
2022-09-11T02:44:40.689Z,100999.72
2022-09-11T02:48:02.947Z,101015.31
2022-09-11T02:51:29.421Z,101024.19
2022-09-11T02:54:47.470Z,101017.38
2022-09-11T02:58:21.201Z,101005.72
2022-09-11T03:01:28.199Z,101004.44
2022-09-11T03:04:35.391Z,101016.91
2022-09-11T03:07:42.081Z,101023.38
2022-09-11T03:10:47.508Z,101039.91
2022-09-11T03:13:53.245Z,101038.41
2022-09-11T03:16:58.865Z,101015.41
2022-09-11T03:20:05.786Z,101001.31
2022-09-11T03:23:11.258Z,101007.06
2022-09-11T03:26:17.872Z,101009.03
2022-09-11T03:29:26.494Z,100999.81
2022-09-11T03:32:34.663Z,100992.78
2022-09-11T03:35:40.153Z,100989.69
2022-09-11T03:38:48.576Z,101000.91
2022-09-11T03:41:55.021Z,101008.75
2022-09-11T03:45:01.123Z,101013.81
2022-09-11T03:48:08.014Z,101010.91
2022-09-11T03:51:15.469Z,101004.69
2022-09-11T03:54:21.356Z,101017.50
2022-09-11T03:57:28.597Z,101016.94
2022-09-11T04:00:34.075Z,101009.19
2022-09-11T04:03:41.083Z,101005.97
2022-09-11T04:06:51.760Z,101009.50
2022-09-11T04:09:58.244Z,101021.78
2022-09-11T04:13:03.323Z,101024.44
2022-09-11T04:16:13.180Z,101020.81
2022-09-11T04:19:21.563Z,101020.41
2022-09-11T04:22:27.704Z,101023.31
2022-09-11T04:25:32.947Z,101026.66
2022-09-11T04:28:42.458Z,101029.13
2022-09-11T04:31:50.313Z,101023.91
2022-09-11T04:34:56.898Z,101035.84
2022-09-11T04:38:02.827Z,101031.22
2022-09-11T04:41:09.685Z,101026.84
2022-09-11T04:44:15.170Z,101032.28
2022-09-11T04:47:22.839Z,101050.63
2022-09-11T04:50:29.632Z,101046.84
2022-09-11T04:53:57.724Z,101051.91
2022-09-11T04:57:09.698Z,101061.53
2022-09-11T05:00:17.896Z,101078.84
2022-09-11T05:03:25.027Z,101077.00
2022-09-11T05:06:34.273Z,101078.44
2022-09-11T05:09:41.309Z,101084.03
2022-09-11T05:12:49.018Z,101092.38
2022-09-11T05:16:00.835Z,101093.69
2022-09-11T05:19:08.604Z,101083.38
2022-09-11T05:22:16.027Z,101079.66
2022-09-11T05:25:31.495Z,101078.53
2022-09-11T05:28:36.628Z,101091.47
2022-09-11T05:31:42.725Z,101085.25
2022-09-11T05:34:50.595Z,101093.91
2022-09-11T05:37:58.970Z,101098.84
2022-09-11T05:41:06.614Z,101111.84
2022-09-11T05:44:12.089Z,101114.44
2022-09-11T05:47:18.723Z,101122.78
2022-09-11T05:50:27.373Z,101125.25
2022-09-11T05:53:34.240Z,101130.66
2022-09-11T05:56:41.934Z,101135.47
2022-09-11T05:59:53.655Z,101126.66
2022-09-11T06:02:59.220Z,101137.00
2022-09-11T06:06:10.423Z,101148.63
2022-09-11T06:09:16.770Z,101150.50
2022-09-11T06:12:22.690Z,101148.00
2022-09-11T06:15:46.114Z,101143.97
2022-09-11T06:18:54.676Z,101151.03
2022-09-11T06:22:00.770Z,101147.28
2022-09-11T06:25:11.018Z,101155.75
2022-09-11T06:28:16.504Z,101168.97
2022-09-11T06:31:24.505Z,101177.91
2022-09-11T06:34:33.549Z,101176.19
2022-09-11T06:37:44.241Z,101179.28
2022-09-11T06:40:50.666Z,101181.19
2022-09-11T06:43:56.838Z,101189.03
2022-09-11T06:47:06.039Z,101179.06
2022-09-11T06:50:14.772Z,101187.06
2022-09-11T06:53:47.876Z,101183.28
2022-09-11T06:56:53.526Z,101181.31
2022-09-11T06:59:59.264Z,101183.38
2022-09-11T07:03:06.085Z,101171.38
2022-09-11T07:06:16.311Z,101182.25
2022-09-11T07:09:24.653Z,101186.75
2022-09-11T07:12:34.544Z,101191.47
2022-09-11T07:15:42.189Z,101191.63
2022-09-11T07:18:48.428Z,101187.84
2022-09-11T07:21:59.529Z,101188.03
2022-09-11T07:25:07.922Z,101190.28
2022-09-11T07:28:17.126Z,101190.91
2022-09-11T07:31:25.420Z,101186.50
2022-09-11T07:34:31.151Z,101180.56
2022-09-11T07:37:41.061Z,101193.00
2022-09-11T07:40:47.126Z,101192.38
2022-09-11T07:43:58.372Z,101201.59
2022-09-11T07:47:05.865Z,101213.03
2022-09-11T07:50:18.399Z,101210.63
2022-09-11T07:53:25.936Z,101209.09
2022-09-11T07:56:31.719Z,101224.09
2022-09-11T07:59:39.853Z,101218.94
2022-09-11T08:02:48.567Z,101214.63
2022-09-11T08:06:01.572Z,101203.38
2022-09-11T08:09:10.895Z,101211.66
2022-09-11T08:12:19.934Z,101218.19
2022-09-11T08:15:27.504Z,101214.47
2022-09-11T08:18:35.725Z,101221.44
2022-09-11T08:21:41.421Z,101224.88
2022-09-11T08:24:47.430Z,101218.63
2022-09-11T08:27:56.107Z,101217.81
2022-09-11T08:31:03.047Z,101217.81
2022-09-11T08:34:10.642Z,101217.22
2022-09-11T08:37:18.777Z,101218.09
2022-09-11T08:40:28.255Z,101216.09
2022-09-11T08:43:39.548Z,101221.03
2022-09-11T08:46:51.020Z,101222.56
2022-09-11T08:50:25.363Z,101215.13
2022-09-11T08:53:34.672Z,101218.97
2022-09-11T08:56:40.631Z,101216.81
2022-09-11T09:00:09.828Z,101220.31
2022-09-11T09:04:08.357Z,101223.13
2022-09-11T09:07:25.828Z,101220.22
2022-09-11T09:10:51.468Z,101227.28
2022-09-11T09:14:07.065Z,101232.31
2022-09-11T09:17:27.810Z,101225.16
2022-09-11T09:20:41.394Z,101217.88
2022-09-11T09:23:53.482Z,101214.75
2022-09-11T09:26:59.690Z,101213.25
2022-09-11T09:30:13.667Z,101203.66
2022-09-11T09:33:31.081Z,101209.97
2022-09-11T09:36:44.164Z,101198.22
2022-09-11T09:39:51.608Z,101200.22
2022-09-11T09:43:13.062Z,101200.44
2022-09-11T09:46:32.812Z,101199.84
2022-09-11T09:49:40.461Z,101198.81
2022-09-11T09:52:49.643Z,101202.75
2022-09-11T09:55:56.893Z,101202.13
2022-09-11T09:59:14.347Z,101205.50
2022-09-11T10:02:51.915Z,101204.25
2022-09-11T10:05:57.497Z,101204.25
2022-09-11T10:09:03.624Z,101210.41
2022-09-11T10:12:17.421Z,101207.75
2022-09-11T10:15:25.721Z,101204.97
2022-09-11T10:18:31.397Z,101199.03
2022-09-11T10:21:38.009Z,101205.06
2022-09-11T10:24:43.373Z,101199.91
2022-09-11T10:27:52.480Z,101202.56
2022-09-11T10:31:04.750Z,101204.31
2022-09-11T10:34:19.398Z,101202.44
2022-09-11T10:37:30.251Z,101198.53
2022-09-11T10:40:35.561Z,101207.66
2022-09-11T10:44:00.905Z,101208.00
2022-09-11T10:47:32.867Z,101207.03
2022-09-11T10:50:38.270Z,101199.72
2022-09-11T10:53:58.780Z,101196.66
2022-09-11T10:57:34.017Z,101188.19
2022-09-11T11:00:40.055Z,101191.28
2022-09-11T11:03:46.666Z,101180.59
2022-09-11T11:07:10.114Z,101181.47
2022-09-11T11:10:36.665Z,101188.78
2022-09-11T11:14:02.295Z,101178.13
2022-09-11T11:17:51.342Z,101182.53
2022-09-11T11:21:04.013Z,101190.13
2022-09-11T11:24:33.900Z,101185.31
2022-09-11T11:28:00.809Z,101188.69
2022-09-11T11:31:27.659Z,101193.00
2022-09-11T11:35:01.503Z,101180.66
2022-09-11T11:38:33.489Z,101192.41
2022-09-11T11:41:45.963Z,101182.28
2022-09-11T11:45:07.315Z,101187.09
2022-09-11T11:48:41.474Z,101179.25
2022-09-11T11:51:54.409Z,101175.69
2022-09-11T11:55:16.856Z,101176.34
2022-09-11T11:58:35.200Z,101166.22
2022-09-11T12:01:49.503Z,101166.75
2022-09-11T12:05:06.139Z,101168.97
2022-09-11T12:08:15.092Z,101167.69
2022-09-11T12:11:30.115Z,101175.53
2022-09-11T12:14:36.068Z,101175.19
2022-09-11T12:17:43.675Z,101173.94
2022-09-11T12:20:49.326Z,101172.50
2022-09-11T12:24:14.644Z,101178.84
2022-09-11T12:27:52.301Z,101168.25
2022-09-11T12:31:02.417Z,101160.72
2022-09-11T12:34:19.083Z,101164.53
2022-09-11T12:37:38.990Z,101157.84
2022-09-11T12:41:07.862Z,101158.75
2022-09-11T12:44:52.588Z,101154.78
2022-09-11T12:48:11.854Z,101152.13
2022-09-11T12:51:33.066Z,101148.81
2022-09-11T12:54:41.373Z,101146.75
2022-09-11T12:57:46.801Z,101143.34
2022-09-11T13:01:20.641Z,101141.63
2022-09-11T13:04:31.384Z,101142.97
2022-09-11T13:07:47.787Z,101128.75
2022-09-11T13:10:53.175Z,101128.22
2022-09-11T13:14:04.158Z,101128.22
2022-09-11T13:17:30.607Z,101134.38
2022-09-11T13:20:36.611Z,101120.25
2022-09-11T13:23:44.779Z,101120.97
2022-09-11T13:27:02.753Z,101116.75
2022-09-11T13:30:12.900Z,101105.09
2022-09-11T13:33:24.333Z,101107.78
2022-09-11T13:36:32.147Z,101105.22
2022-09-11T13:39:42.337Z,101096.97
2022-09-11T13:42:49.273Z,101100.16
2022-09-11T13:46:16.261Z,101089.09
2022-09-11T13:49:42.512Z,101095.63
2022-09-11T13:52:49.682Z,101087.47
2022-09-11T13:55:55.104Z,101084.41
2022-09-11T13:59:02.846Z,101086.69
2022-09-11T14:02:44.766Z,101086.41
2022-09-11T14:05:56.687Z,101076.81
2022-09-11T14:09:02.338Z,101078.41
2022-09-11T14:12:08.464Z,101066.81
2022-09-11T14:15:28.465Z,101067.44
2022-09-11T14:18:45.652Z,101063.75
2022-09-11T14:21:52.339Z,101061.38
2022-09-11T14:25:05.538Z,101061.03
2022-09-11T14:28:41.296Z,101047.56
2022-09-11T14:31:47.214Z,101046.06
2022-09-11T14:34:52.511Z,101037.47
2022-09-11T14:37:57.655Z,101044.22
2022-09-11T14:41:07.537Z,101044.50
2022-09-11T14:44:16.429Z,101031.44
2022-09-11T14:47:24.838Z,101039.81
2022-09-11T14:50:31.339Z,101032.66
2022-09-11T14:53:36.780Z,101033.25
2022-09-11T14:56:43.228Z,101022.72
2022-09-11T14:59:50.441Z,101022.47
2022-09-11T15:02:56.271Z,101016.94
2022-09-11T15:06:01.796Z,101012.03
2022-09-11T15:09:07.206Z,101015.28
2022-09-11T15:12:14.713Z,101014.88
2022-09-11T15:15:21.528Z,101025.06
2022-09-11T15:18:27.799Z,101023.69
2022-09-11T15:21:37.474Z,101020.38
2022-09-11T15:24:43.985Z,101016.16
2022-09-11T15:27:53.701Z,101015.25
2022-09-11T15:31:00.811Z,101012.25
2022-09-11T15:34:07.686Z,101009.16
2022-09-11T15:37:13.525Z,101012.44
2022-09-11T15:40:19.443Z,101006.56
2022-09-11T15:43:26.398Z,100998.09
2022-09-11T15:46:31.610Z,101000.09
2022-09-11T15:49:44.787Z,100999.13
2022-09-11T15:52:50.371Z,101003.88
2022-09-11T15:56:07.200Z,100997.84
2022-09-11T15:59:15.417Z,100995.66
2022-09-11T16:02:21.837Z,100997.16
2022-09-11T16:05:27.088Z,100997.28
2022-09-11T16:08:32.752Z,101000.22
2022-09-11T16:11:41.765Z,100994.44
2022-09-11T16:14:47.425Z,100990.28
2022-09-11T16:17:52.480Z,100985.56
2022-09-11T16:20:58.876Z,100984.91
2022-09-11T16:24:05.385Z,100986.94
2022-09-11T16:27:11.257Z,100993.91
2022-09-11T16:30:41.523Z,100991.34
2022-09-11T16:33:45.039Z,100990.41
2022-09-11T16:36:50.436Z,100990.47
2022-09-11T16:39:55.904Z,100988.94
2022-09-11T16:43:02.851Z,100994.69
2022-09-11T16:46:09.688Z,100993.63
2022-09-11T16:49:18.348Z,100998.47
2022-09-11T16:52:23.770Z,100996.63
2022-09-11T16:55:28.859Z,100996.97
2022-09-11T16:58:34.979Z,100998.41
2022-09-11T17:01:40.925Z,100997.28
2022-09-11T17:04:46.341Z,100991.84
2022-09-11T17:07:51.429Z,101002.97
2022-09-11T17:10:59.324Z,101007.16
2022-09-11T17:14:04.743Z,101003.66
2022-09-11T17:17:10.351Z,100997.75
2022-09-11T17:20:16.621Z,100997.44
2022-09-11T17:23:21.825Z,101001.63
2022-09-11T17:26:26.905Z,101008.69
2022-09-11T17:29:32.159Z,101003.69
2022-09-11T17:32:38.984Z,100999.38
2022-09-11T17:35:44.207Z,100990.41
2022-09-11T17:38:52.752Z,100996.66
2022-09-11T17:41:57.798Z,100997.47
2022-09-11T17:45:04.880Z,100997.16
2022-09-11T17:48:10.284Z,100997.16
2022-09-11T17:51:17.634Z,100997.25
2022-09-11T17:54:23.314Z,100997.25
2022-09-11T17:57:28.797Z,100998.31
2022-09-11T18:00:35.005Z,100998.47
2022-09-11T18:03:40.563Z,100998.59
2022-09-11T18:06:47.136Z,100999.91
2022-09-11T18:09:56.225Z,101001.44
2022-09-11T18:13:03.025Z,101011.09
2022-09-11T18:16:11.489Z,101013.94
2022-09-11T18:19:20.588Z,101017.13
2022-09-11T18:22:25.958Z,101011.84
2022-09-11T18:25:31.106Z,101019.97
2022-09-11T18:28:39.750Z,101029.53
2022-09-11T18:31:50.129Z,101029.53
2022-09-11T18:34:56.746Z,101022.38
2022-09-11T18:38:02.151Z,101036.44
2022-09-11T18:41:07.660Z,101035.00
2022-09-11T18:44:19.439Z,101038.63
2022-09-11T18:47:28.236Z,101031.09
2022-09-11T18:50:36.634Z,101035.13
2022-09-11T18:53:45.498Z,101041.78
2022-09-11T18:56:51.762Z,101040.59
2022-09-11T18:59:57.075Z,101046.97
2022-09-11T19:03:02.434Z,101048.09
2022-09-11T19:06:16.838Z,101049.09
2022-09-11T19:09:22.180Z,101053.81
2022-09-11T19:12:27.598Z,101053.97
2022-09-11T19:15:33.334Z,101059.88
2022-09-11T19:18:39.838Z,101065.84
2022-09-11T19:21:45.485Z,101071.88
2022-09-11T19:24:52.709Z,101073.09
2022-09-11T19:27:58.061Z,101068.06
2022-09-11T19:31:06.519Z,101074.50
2022-09-11T19:34:13.254Z,101075.94
2022-09-11T19:37:20.507Z,101085.38
2022-09-11T19:40:26.871Z,101088.00
2022-09-11T19:43:34.744Z,101091.25
2022-09-11T19:46:41.939Z,101095.63
2022-09-11T19:49:47.787Z,101103.88
2022-09-11T19:52:53.231Z,101107.06
2022-09-11T19:56:00.288Z,101101.00
2022-09-11T19:59:07.900Z,101111.28
2022-09-11T20:02:14.219Z,101113.44
2022-09-11T20:05:19.417Z,101114.63
2022-09-11T20:08:24.666Z,101113.72
2022-09-11T20:11:30.697Z,101116.16
2022-09-11T20:14:39.445Z,101121.25
2022-09-11T20:17:48.238Z,101124.09
2022-09-11T20:20:53.646Z,101114.72
2022-09-11T20:24:00.452Z,101124.47
2022-09-11T20:27:05.568Z,101138.66
2022-09-11T20:30:11.765Z,101137.00
2022-09-11T20:33:17.529Z,101135.94
2022-09-11T20:36:24.508Z,101133.38
2022-09-11T20:39:29.687Z,101130.56
2022-09-11T20:42:34.796Z,101138.56
2022-09-11T20:45:40.375Z,101144.66
2022-09-11T20:48:50.832Z,101142.47
2022-09-11T20:51:56.020Z,101152.06
2022-09-11T20:55:01.178Z,101151.94
2022-09-11T20:58:07.114Z,101149.38
2022-09-11T21:01:15.733Z,101161.69
2022-09-11T21:04:23.943Z,101152.28
2022-09-11T21:07:29.455Z,101157.22
2022-09-11T21:10:36.373Z,101165.63
2022-09-11T21:13:42.734Z,101164.63
2022-09-11T21:16:48.463Z,101168.03
2022-09-11T21:19:57.272Z,101161.00
2022-09-11T21:23:04.362Z,101166.72
2022-09-11T21:26:11.271Z,101172.72
2022-09-11T21:29:16.869Z,101164.00
2022-09-11T21:32:22.404Z,101171.81
2022-09-11T21:35:27.521Z,101183.03
2022-09-11T21:38:32.706Z,101183.91
2022-09-11T21:41:38.009Z,101182.38
2022-09-11T21:44:43.737Z,101194.88
2022-09-11T21:47:49.321Z,101192.09
2022-09-11T21:50:55.452Z,101198.16
2022-09-11T21:54:02.076Z,101198.94
2022-09-11T21:57:07.391Z,101201.94
2022-09-11T22:00:14.481Z,101203.94
2022-09-11T22:03:20.854Z,101197.50
2022-09-11T22:06:27.063Z,101195.19
2022-09-11T22:09:32.735Z,101203.13
2022-09-11T22:12:37.961Z,101201.78
2022-09-11T22:15:47.249Z,101200.44
2022-09-11T22:18:54.487Z,101205.59
2022-09-11T22:22:00.183Z,101204.75
2022-09-11T22:25:07.510Z,101201.47
2022-09-11T22:28:13.346Z,101208.75
2022-09-11T22:31:24.004Z,101208.41
2022-09-11T22:34:32.458Z,101210.88
2022-09-11T22:37:37.878Z,101206.63
2022-09-11T22:40:43.133Z,101212.81
2022-09-11T22:43:50.382Z,101230.28
2022-09-11T22:46:56.368Z,101223.34
2022-09-11T22:50:02.173Z,101220.91
2022-09-11T22:53:07.727Z,101231.09
2022-09-11T22:56:14.378Z,101229.81
2022-09-11T22:59:19.873Z,101229.31
2022-09-11T23:02:25.469Z,101224.97
2022-09-11T23:05:49.313Z,101222.34
2022-09-11T23:08:55.392Z,101224.81
2022-09-11T23:12:01.653Z,101219.06
2022-09-11T23:15:07.988Z,101225.56
2022-09-11T23:18:13.296Z,101233.16
2022-09-11T23:21:18.647Z,101228.78
2022-09-11T23:24:24.783Z,101236.41
2022-09-11T23:27:29.844Z,101237.56
2022-09-11T23:30:41.889Z,101241.81
2022-09-11T23:33:49.034Z,101227.88
2022-09-11T23:36:54.938Z,101229.78
2022-09-11T23:40:00.870Z,101229.69
2022-09-11T23:43:06.204Z,101231.31
2022-09-11T23:46:12.150Z,101224.59
2022-09-11T23:49:17.361Z,101221.41
2022-09-11T23:52:22.827Z,101219.75
2022-09-11T23:55:28.371Z,101224.94
2022-09-11T23:58:39.284Z,101227.09
